TAF and METAR

No METAR available for Eldoret International Airport

TAF for Eldoret International Airport

TAF HKEL 191700Z 1918/2018 VRB07KT 9999 FEW018 BKN080 BECMG 2008/2011 FEW021CB BKN022 TEMPO 2012/2018 -TSRA FEW018CB BKN019 BKN080
Report created 19. okt 19:00

between 19. okt 20:00 - 20. okt 20:00

wind 7 knots from various directions visibility > 10km some clouds (~25% cover) at 1800 feet broken clouds (~75% cover) at 8000 feet

becoming between 20. okt 10:00 - 20. okt 13:00

some clouds (~25% cover) at 2100 feet of type cumulonimbus broken clouds (~75% cover) at 2200 feet

temporarily between 20. okt 14:00 - 20. okt 20:00

light thunderstorm and rain some clouds (~25% cover) at 1800 feet of type cumulonimbus broken clouds (~75% cover) at 1900 feet broken clouds (~75% cover) at 8000 feet
Eldoret International Airport in Kenya at 2133m

Latest 5 airports